sensor_id;sensor_type;location;lat;lon;timestamp;pressure;altitude;pressure_sealevel;temperature;humidity
25650;BME280;13505;45.196;5.696;2023-03-13T05:00:49;99231.66;;;10.85;87.92
25650;BME280;13505;45.196;5.696;2023-03-13T05:05:39;99228.53;;;10.96;86.19
25650;BME280;13505;45.196;5.696;2023-03-13T05:10:29;99225.94;;;10.95;86.43
25650;BME280;13505;45.196;5.696;2023-03-13T05:15:20;99209.03;;;10.99;85.22
25650;BME280;13505;45.196;5.696;2023-03-13T05:20:10;99198.03;;;11.08;83.56
25650;BME280;13505;45.196;5.696;2023-03-13T05:25:01;99194.78;;;11.03;83.16
25650;BME280;13505;45.196;5.696;2023-03-13T05:29:51;99196.41;;;10.86;83.32
25650;BME280;13505;45.196;5.696;2023-03-13T05:34:41;99190.22;;;11.07;82.44
25650;BME280;13505;45.196;5.696;2023-03-13T05:39:32;99182.94;;;10.93;81.76
25650;BME280;13505;45.196;5.696;2023-03-13T05:44:22;99186.22;;;10.98;81.82
25650;BME280;13505;45.196;5.696;2023-03-13T05:49:13;99175.44;;;11.02;80.68
25650;BME280;13505;45.196;5.696;2023-03-13T05:54:04;99188.94;;;10.77;81.77
25650;BME280;13505;45.196;5.696;2023-03-13T05:58:54;99178.88;;;10.85;81.67
25650;BME280;13505;45.196;5.696;2023-03-13T06:03:44;99161.13;;;10.89;82.58
25650;BME280;13505;45.196;5.696;2023-03-13T06:08:35;99157.44;;;10.74;83.34
25650;BME280;13505;45.196;5.696;2023-03-13T06:13:25;99169.78;;;10.73;83.19
25650;BME280;13505;45.196;5.696;2023-03-13T06:18:15;99166.78;;;10.62;83.98
25650;BME280;13505;45.196;5.696;2023-03-13T06:23:06;99161.97;;;10.70;83.79
25650;BME280;13505;45.196;5.696;2023-03-13T06:27:56;99154.06;;;10.70;84.10
25650;BME280;13505;45.196;5.696;2023-03-13T06:32:46;99154.72;;;10.75;84.11
25650;BME280;13505;45.196;5.696;2023-03-13T06:37:39;99136.88;;;10.81;84.98
25650;BME280;13505;45.196;5.696;2023-03-13T06:42:29;99136.88;;;11.00;84.24
25650;BME280;13505;45.196;5.696;2023-03-13T06:47:20;99135.59;;;11.26;82.77
25650;BME280;13505;45.196;5.696;2023-03-13T06:52:10;99118.19;;;11.22;83.79
25650;BME280;13505;45.196;5.696;2023-03-13T06:57:00;99126.09;;;11.05;84.12
25650;BME280;13505;45.196;5.696;2023-03-13T07:01:51;99132.03;;;11.27;84.68
25650;BME280;13505;45.196;5.696;2023-03-13T07:06:41;99129.50;;;11.24;84.16
25650;BME280;13505;45.196;5.696;2023-03-13T07:11:32;99098.63;;;11.26;83.45
25650;BME280;13505;45.196;5.696;2023-03-13T07:16:22;99115.06;;;11.14;83.51
25650;BME280;13505;45.196;5.696;2023-03-13T07:21:13;99128.78;;;11.40;82.61
25650;BME280;13505;45.196;5.696;2023-03-13T07:26:11;99114.31;;;11.29;83.23
25650;BME280;13505;45.196;5.696;2023-03-13T07:31:09;99112.91;;;11.75;80.30
25650;BME280;13505;45.196;5.696;2023-03-13T07:36:00;99112.00;;;12.10;78.18
25650;BME280;13505;45.196;5.696;2023-03-13T07:40:53;99109.44;;;12.08;78.12
25650;BME280;13505;45.196;5.696;2023-03-13T07:45:58;99107.84;;;12.06;78.02
25650;BME280;13505;45.196;5.696;2023-03-13T07:50:49;99104.47;;;12.52;75.54
25650;BME280;13505;45.196;5.696;2023-03-13T07:55:40;99093.03;;;12.51;72.96
25650;BME280;13505;45.196;5.696;2023-03-13T08:00:30;99082.72;;;12.79;72.55
25650;BME280;13505;45.196;5.696;2023-03-13T08:05:21;99093.16;;;13.12;70.81
25650;BME280;13505;45.196;5.696;2023-03-13T08:10:11;99079.50;;;13.04;70.90
25650;BME280;13505;45.196;5.696;2023-03-13T08:15:01;99083.88;;;13.05;71.92
25650;BME280;13505;45.196;5.696;2023-03-13T08:19:52;99064.91;;;12.97;71.20
25650;BME280;13505;45.196;5.696;2023-03-13T08:24:42;99069.28;;;12.82;69.89
25650;BME280;13505;45.196;5.696;2023-03-13T08:29:32;99054.97;;;12.86;69.68
25650;BME280;13505;45.196;5.696;2023-03-13T08:34:23;99061.72;;;12.76;68.85
25650;BME280;13505;45.196;5.696;2023-03-13T08:39:16;99030.88;;;12.91;69.36
25650;BME280;13505;45.196;5.696;2023-03-13T08:44:09;99038.22;;;12.69;69.98
25650;BME280;13505;45.196;5.696;2023-03-13T08:49:00;99011.56;;;12.89;69.93
25650;BME280;13505;45.196;5.696;2023-03-13T08:53:51;99010.22;;;12.81;70.70
25650;BME280;13505;45.196;5.696;2023-03-13T08:58:42;98984.25;;;12.88;71.38
25650;BME280;13505;45.196;5.696;2023-03-13T09:03:33;98981.41;;;12.91;71.89
25650;BME280;13505;45.196;5.696;2023-03-13T09:08:24;98963.81;;;12.90;73.45
25650;BME280;13505;45.196;5.696;2023-03-13T09:13:14;98962.47;;;13.14;72.78
25650;BME280;13505;45.196;5.696;2023-03-13T09:18:05;98948.03;;;12.89;73.13
25650;BME280;13505;45.196;5.696;2023-03-13T09:22:56;98906.56;;;13.04;72.60
25650;BME280;13505;45.196;5.696;2023-03-13T09:27:47;98906.00;;;12.98;72.56
25650;BME280;13505;45.196;5.696;2023-03-13T09:32:37;98898.72;;;13.17;72.49
25650;BME280;13505;45.196;5.696;2023-03-13T09:37:27;98894.81;;;13.37;71.89
25650;BME280;13505;45.196;5.696;2023-03-13T09:42:21;98886.72;;;13.54;70.87
25650;BME280;13505;45.196;5.696;2023-03-13T09:47:26;98874.59;;;13.65;70.22
25650;BME280;13505;45.196;5.696;2023-03-13T09:52:45;98854.41;;;14.04;68.36
25650;BME280;13505;45.196;5.696;2023-03-13T09:57:55;98855.88;;;14.76;67.69
25650;BME280;13505;45.196;5.696;2023-03-13T10:08:15;98815.84;;;15.43;61.51
25650;BME280;13505;45.196;5.696;2023-03-13T10:13:27;98806.06;;;14.80;63.87
25650;BME280;13505;45.196;5.696;2023-03-13T10:18:22;98794.31;;;15.59;62.38
25650;BME280;13505;45.196;5.696;2023-03-13T10:28:24;98774.97;;;17.11;57.00
25650;BME280;13505;45.196;5.696;2023-03-13T10:33:25;98764.88;;;17.38;54.84
25650;BME280;13505;45.196;5.696;2023-03-13T10:38:18;98771.31;;;18.00;53.63
25650;BME280;13505;45.196;5.696;2023-03-13T10:43:17;98761.50;;;18.01;50.78
25650;BME280;13505;45.196;5.696;2023-03-13T10:48:13;98737.09;;;18.17;51.73
25650;BME280;13505;45.196;5.696;2023-03-13T10:58:21;98713.44;;;18.96;48.39
25650;BME280;13505;45.196;5.696;2023-03-13T11:03:22;98702.75;;;19.66;46.82
25650;BME280;13505;45.196;5.696;2023-03-13T11:13:26;98687.63;;;20.34;46.52
25650;BME280;13505;45.196;5.696;2023-03-13T11:18:18;98671.94;;;20.40;44.71
25650;BME280;13505;45.196;5.696;2023-03-13T11:23:18;98658.81;;;20.46;44.53
25650;BME280;13505;45.196;5.696;2023-03-13T11:33:11;98631.31;;;20.82;44.17
25650;BME280;13505;45.196;5.696;2023-03-13T11:38:26;98612.28;;;20.47;44.95
25650;BME280;13505;45.196;5.696;2023-03-13T11:43:31;98609.16;;;20.52;44.66
25650;BME280;13505;45.196;5.696;2023-03-13T12:04:33;98524.44;;;20.97;43.31
25650;BME280;13505;45.196;5.696;2023-03-13T12:14:29;98479.19;;;21.65;43.51
25650;BME280;13505;45.196;5.696;2023-03-13T12:19:31;98448.34;;;22.04;43.49
25650;BME280;13505;45.196;5.696;2023-03-13T12:24:31;98429.34;;;22.49;42.74
25650;BME280;13505;45.196;5.696;2023-03-13T12:40:00;98376.06;;;23.35;37.18
25650;BME280;13505;45.196;5.696;2023-03-13T12:44:57;98351.47;;;24.42;33.35
25650;BME280;13505;45.196;5.696;2023-03-13T12:59:59;98292.97;;;25.19;31.19
25650;BME280;13505;45.196;5.696;2023-03-13T13:04:56;98293.63;;;24.91;31.91
25650;BME280;13505;45.196;5.696;2023-03-13T13:10:22;98253.69;;;25.16;30.50
25650;BME280;13505;45.196;5.696;2023-03-13T13:15:24;98244.41;;;25.04;30.80
25650;BME280;13505;45.196;5.696;2023-03-13T13:20:38;98228.31;;;25.11;29.80
25650;BME280;13505;45.196;5.696;2023-03-13T13:25:32;98218.00;;;24.99;31.17
25650;BME280;13505;45.196;5.696;2023-03-13T13:30:30;98208.88;;;25.00;32.07
25650;BME280;13505;45.196;5.696;2023-03-13T13:35:32;98192.44;;;24.95;31.36
25650;BME280;13505;45.196;5.696;2023-03-13T13:40:28;98189.66;;;24.88;30.68
25650;BME280;13505;45.196;5.696;2023-03-13T13:45:23;98165.22;;;24.75;30.82
25650;BME280;13505;45.196;5.696;2023-03-13T13:50:20;98170.03;;;24.64;30.89
25650;BME280;13505;45.196;5.696;2023-03-13T13:55:33;98143.25;;;24.48;31.88
25650;BME280;13505;45.196;5.696;2023-03-13T14:00:52;98139.38;;;24.35;31.30
25650;BME280;13505;45.196;5.696;2023-03-13T14:05:46;98135.81;;;24.50;31.49
25650;BME280;13505;45.196;5.696;2023-03-13T14:10:43;98127.19;;;24.39;32.14
25650;BME280;13505;45.196;5.696;2023-03-13T14:15:35;98128.94;;;24.62;31.64
25650;BME280;13505;45.196;5.696;2023-03-13T14:20:39;98123.66;;;24.39;32.20
25650;BME280;13505;45.196;5.696;2023-03-13T14:25:48;98147.94;;;24.54;32.74
25650;BME280;13505;45.196;5.696;2023-03-13T14:30:42;98140.09;;;24.44;32.78
25650;BME280;13505;45.196;5.696;2023-03-13T14:35:33;98123.09;;;24.29;32.52
25650;BME280;13505;45.196;5.696;2023-03-13T14:40:28;98124.56;;;24.16;32.54
25650;BME280;13505;45.196;5.696;2023-03-13T14:45:30;98114.94;;;24.22;32.44
25650;BME280;13505;45.196;5.696;2023-03-13T14:50:23;98115.91;;;24.21;33.24
25650;BME280;13505;45.196;5.696;2023-03-13T15:05:30;98086.66;;;23.64;33.92
25650;BME280;13505;45.196;5.696;2023-03-13T15:10:34;98048.72;;;23.74;34.17
25650;BME280;13505;45.196;5.696;2023-03-13T15:15:29;98059.44;;;23.59;34.04
25650;BME280;13505;45.196;5.696;2023-03-13T15:20:20;98046.25;;;23.49;34.38
25650;BME280;13505;45.196;5.696;2023-03-13T15:25:20;98041.75;;;23.41;34.87
25650;BME280;13505;45.196;5.696;2023-03-13T15:30:20;98037.34;;;23.49;34.99
25650;BME280;13505;45.196;5.696;2023-03-13T15:35:23;98019.25;;;23.42;35.55
25650;BME280;13505;45.196;5.696;2023-03-13T15:40:15;98028.56;;;23.32;36.24
25650;BME280;13505;45.196;5.696;2023-03-13T15:45:06;98021.56;;;23.22;35.57
25650;BME280;13505;45.196;5.696;2023-03-13T15:49:57;98035.59;;;23.09;36.67
25650;BME280;13505;45.196;5.696;2023-03-13T15:54:49;98016.25;;;23.14;36.49
25650;BME280;13505;45.196;5.696;2023-03-13T15:59:40;98010.81;;;23.22;37.15
25650;BME280;13505;45.196;5.696;2023-03-13T16:04:30;98008.72;;;23.09;36.91
25650;BME280;13505;45.196;5.696;2023-03-13T16:09:22;97996.75;;;23.12;37.06
25650;BME280;13505;45.196;5.696;2023-03-13T16:14:12;97978.09;;;22.95;36.75
25650;BME280;13505;45.196;5.696;2023-03-13T16:19:02;97976.53;;;23.01;36.92
25650;BME280;13505;45.196;5.696;2023-03-13T16:23:54;97938.78;;;22.94;37.13
25650;BME280;13505;45.196;5.696;2023-03-13T16:28:45;97956.28;;;22.90;37.24
25650;BME280;13505;45.196;5.696;2023-03-13T16:33:35;97949.53;;;22.71;37.45
25650;BME280;13505;45.196;5.696;2023-03-13T16:38:26;97971.66;;;22.50;38.06
25650;BME280;13505;45.196;5.696;2023-03-13T16:43:16;97967.63;;;22.45;38.38
25650;BME280;13505;45.196;5.696;2023-03-13T16:48:13;97958.59;;;22.38;38.36
25650;BME280;13505;45.196;5.696;2023-03-13T16:53:05;97955.56;;;22.41;38.50
25650;BME280;13505;45.196;5.696;2023-03-13T16:57:57;97966.66;;;22.38;38.68
25650;BME280;13505;45.196;5.696;2023-03-13T17:02:47;97931.31;;;22.26;38.58
25650;BME280;13505;45.196;5.696;2023-03-13T17:07:38;97931.38;;;22.10;38.88
25650;BME280;13505;45.196;5.696;2023-03-13T17:12:28;97934.22;;;22.08;39.08
25650;BME280;13505;45.196;5.696;2023-03-13T17:17:20;97931.44;;;21.93;39.32
25650;BME280;13505;45.196;5.696;2023-03-13T17:22:13;97915.25;;;21.78;40.00
25650;BME280;13505;45.196;5.696;2023-03-13T17:27:08;97922.31;;;21.63;40.30
25650;BME280;13505;45.196;5.696;2023-03-13T17:31:59;97924.50;;;21.51;40.55
25650;BME280;13505;45.196;5.696;2023-03-13T17:36:51;97906.28;;;21.38;40.46
25650;BME280;13505;45.196;5.696;2023-03-13T17:41:42;97908.78;;;21.39;40.64
25650;BME280;13505;45.196;5.696;2023-03-13T17:46:37;97879.13;;;21.41;40.85
25650;BME280;13505;45.196;5.696;2023-03-13T17:51:30;97874.28;;;21.28;41.09
25650;BME280;13505;45.196;5.696;2023-03-13T17:56:24;97853.31;;;21.40;40.76
25650;BME280;13505;45.196;5.696;2023-03-13T18:01:18;97855.84;;;21.33;40.63
25650;BME280;13505;45.196;5.696;2023-03-13T18:06:31;97850.34;;;21.26;41.14
25650;BME280;13505;45.196;5.696;2023-03-13T18:11:24;97841.16;;;21.12;41.64
25650;BME280;13505;45.196;5.696;2023-03-13T18:21:14;97828.25;;;21.16;41.30
25650;BME280;13505;45.196;5.696;2023-03-13T18:26:27;97832.28;;;21.12;41.42
25650;BME280;13505;45.196;5.696;2023-03-13T18:31:16;97841.00;;;21.14;41.41
25650;BME280;13505;45.196;5.696;2023-03-13T18:36:15;97834.13;;;21.11;40.84
25650;BME280;13505;45.196;5.696;2023-03-13T18:41:06;97863.94;;;21.08;41.21
25650;BME280;13505;45.196;5.696;2023-03-13T18:45:57;97888.75;;;21.10;41.16
25650;BME280;13505;45.196;5.696;2023-03-13T18:50:48;97904.13;;;21.16;41.11
25650;BME280;13505;45.196;5.696;2023-03-13T18:55:38;97893.09;;;21.19;41.64
25650;BME280;13505;45.196;5.696;2023-03-13T19:00:29;97939.31;;;21.13;41.87
25650;BME280;13505;45.196;5.696;2023-03-13T19:05:20;97922.75;;;21.10;41.68
25650;BME280;13505;45.196;5.696;2023-03-13T19:10:17;97919.72;;;21.21;41.65
25650;BME280;13505;45.196;5.696;2023-03-13T19:15:09;97919.22;;;21.17;42.07
25650;BME280;13505;45.196;5.696;2023-03-13T19:19:59;97918.91;;;21.04;42.15
25650;BME280;13505;45.196;5.696;2023-03-13T19:24:49;97908.84;;;20.89;42.95
25650;BME280;13505;45.196;5.696;2023-03-13T19:29:40;97896.28;;;20.90;42.77
25650;BME280;13505;45.196;5.696;2023-03-13T19:34:30;97867.50;;;20.84;43.19
25650;BME280;13505;45.196;5.696;2023-03-13T19:39:22;97864.28;;;20.72;43.18
25650;BME280;13505;45.196;5.696;2023-03-13T19:44:17;97872.81;;;20.75;43.34
25650;BME280;13505;45.196;5.696;2023-03-13T19:49:19;97853.56;;;20.72;43.73
25650;BME280;13505;45.196;5.696;2023-03-13T19:54:10;97849.72;;;20.58;43.94
25650;BME280;13505;45.196;5.696;2023-03-13T19:59:06;97851.72;;;20.47;44.47
25650;BME280;13505;45.196;5.696;2023-03-13T20:03:59;97850.22;;;20.45;49.24
25650;BME280;13505;45.196;5.696;2023-03-13T20:08:56;97840.72;;;19.83;51.74
25650;BME280;13505;45.196;5.696;2023-03-13T20:13:47;97865.88;;;19.63;53.88
25650;BME280;13505;45.196;5.696;2023-03-13T20:18:38;97885.44;;;19.64;52.36
25650;BME280;13505;45.196;5.696;2023-03-13T20:23:28;97861.84;;;19.59;52.16
25650;BME280;13505;45.196;5.696;2023-03-13T20:28:19;97847.16;;;19.63;50.13
25650;BME280;13505;45.196;5.696;2023-03-13T20:33:10;97836.22;;;19.48;51.76
25650;BME280;13505;45.196;5.696;2023-03-13T20:38:01;97849.75;;;19.47;51.86
25650;BME280;13505;45.196;5.696;2023-03-13T20:42:54;97868.59;;;19.10;56.98
25650;BME280;13505;45.196;5.696;2023-03-13T20:47:44;97850.59;;;18.94;55.07
25650;BME280;13505;45.196;5.696;2023-03-13T20:52:34;97870.00;;;18.78;56.09
25650;BME280;13505;45.196;5.696;2023-03-13T20:57:25;97891.00;;;18.73;56.23
25650;BME280;13505;45.196;5.696;2023-03-13T21:02:15;97910.78;;;18.44;59.94
25650;BME280;13505;45.196;5.696;2023-03-13T21:07:05;97918.38;;;18.21;61.65
25650;BME280;13505;45.196;5.696;2023-03-13T21:11:56;97969.78;;;17.85;68.58
25650;BME280;13505;45.196;5.696;2023-03-13T21:16:46;97975.88;;;17.57;71.87
25650;BME280;13505;45.196;5.696;2023-03-13T21:21:37;97964.44;;;17.47;70.60
25650;BME280;13505;45.196;5.696;2023-03-13T21:26:27;97965.94;;;17.50;70.77
25650;BME280;13505;45.196;5.696;2023-03-13T21:31:18;97989.72;;;17.33;71.89
25650;BME280;13505;45.196;5.696;2023-03-13T21:36:10;97984.25;;;17.25;72.45
25650;BME280;13505;45.196;5.696;2023-03-13T21:41:06;97974.03;;;17.10;73.52
25650;BME280;13505;45.196;5.696;2023-03-13T21:45:57;97996.41;;;16.98;73.04
25650;BME280;13505;45.196;5.696;2023-03-13T21:50:51;98021.75;;;16.72;78.72
25650;BME280;13505;45.196;5.696;2023-03-13T21:55:41;98072.97;;;16.45;79.94
25650;BME280;13505;45.196;5.696;2023-03-13T22:00:31;98110.56;;;16.21;85.25
25650;BME280;13505;45.196;5.696;2023-03-13T22:05:22;98152.53;;;15.96;86.89
25650;BME280;13505;45.196;5.696;2023-03-13T22:10:12;98186.81;;;15.56;87.01
25650;BME280;13505;45.196;5.696;2023-03-13T22:15:04;98211.09;;;15.52;81.11
25650;BME280;13505;45.196;5.696;2023-03-13T22:19:55;98195.47;;;15.58;78.48
25650;BME280;13505;45.196;5.696;2023-03-13T22:24:45;98203.72;;;15.44;77.06
25650;BME280;13505;45.196;5.696;2023-03-13T22:29:36;98210.47;;;14.92;80.85
25650;BME280;13505;45.196;5.696;2023-03-13T22:34:26;98210.38;;;14.83;81.71
25650;BME280;13505;45.196;5.696;2023-03-13T22:39:19;98189.81;;;14.62;82.99
25650;BME280;13505;45.196;5.696;2023-03-13T22:44:10;98186.78;;;14.44;84.45
25650;BME280;13505;45.196;5.696;2023-03-13T22:49:01;98191.72;;;14.37;83.22
25650;BME280;13505;45.196;5.696;2023-03-13T22:53:51;98222.13;;;14.33;84.61
25650;BME280;13505;45.196;5.696;2023-03-13T22:58:42;98255.50;;;14.24;86.06
